sensor_id;sensor_type;location;lat;lon;timestamp;temperature;humidity
61412;DHT22;47278;49.732;7.690;2023-02-07T00:02:07;1.00;99.90
61412;DHT22;47278;49.732;7.690;2023-02-07T00:04:33;-1.10;99.90
61412;DHT22;47278;49.732;7.690;2023-02-07T00:06:58;0.90;99.90
61412;DHT22;47278;49.732;7.690;2023-02-07T00:09:24;0.70;99.90
61412;DHT22;47278;49.732;7.690;2023-02-07T00:11:49;0.70;99.90
61412;DHT22;47278;49.732;7.690;2023-02-07T00:14:15;0.70;99.90
61412;DHT22;47278;49.732;7.690;2023-02-07T00:16:40;0.60;99.90
61412;DHT22;47278;49.732;7.690;2023-02-07T00:19:06;0.70;99.90
61412;DHT22;47278;49.732;7.690;2023-02-07T00:21:32;0.60;99.90
61412;DHT22;47278;49.732;7.690;2023-02-07T00:23:58;2.10;99.90
61412;DHT22;47278;49.732;7.690;2023-02-07T00:26:24;0.80;99.90
61412;DHT22;47278;49.732;7.690;2023-02-07T00:28:50;0.50;99.90
61412;DHT22;47278;49.732;7.690;2023-02-07T00:31:18;0.30;99.90
61412;DHT22;47278;49.732;7.690;2023-02-07T00:33:44;0.30;99.90
61412;DHT22;47278;49.732;7.690;2023-02-07T00:36:20;0.60;99.90
61412;DHT22;47278;49.732;7.690;2023-02-07T00:38:46;0.40;99.90
61412;DHT22;47278;49.732;7.690;2023-02-07T00:41:12;0.30;99.90
61412;DHT22;47278;49.732;7.690;2023-02-07T00:43:39;0.30;99.90
61412;DHT22;47278;49.732;7.690;2023-02-07T00:46:05;0.20;99.90
61412;DHT22;47278;49.732;7.690;2023-02-07T00:48:33;0.00;99.90
61412;DHT22;47278;49.732;7.690;2023-02-07T00:50:59;0.00;99.90
61412;DHT22;47278;49.732;7.690;2023-02-07T00:53:25;0.00;99.90
61412;DHT22;47278;49.732;7.690;2023-02-07T00:55:50;0.10;99.90
61412;DHT22;47278;49.732;7.690;2023-02-07T00:58:16;0.20;99.90
61412;DHT22;47278;49.732;7.690;2023-02-07T01:00:41;0.40;99.90
61412;DHT22;47278;49.732;7.690;2023-02-07T01:03:07;0.30;99.90
61412;DHT22;47278;49.732;7.690;2023-02-07T01:05:32;0.50;99.90
61412;DHT22;47278;49.732;7.690;2023-02-07T01:07:58;0.50;99.90
61412;DHT22;47278;49.732;7.690;2023-02-07T01:10:23;0.50;99.90
61412;DHT22;47278;49.732;7.690;2023-02-07T01:12:49;0.60;99.90
61412;DHT22;47278;49.732;7.690;2023-02-07T01:15:15;0.70;99.90
61412;DHT22;47278;49.732;7.690;2023-02-07T01:17:41;0.60;99.90
61412;DHT22;47278;49.732;7.690;2023-02-07T01:20:06;0.60;99.90
61412;DHT22;47278;49.732;7.690;2023-02-07T01:22:32;0.40;99.90
61412;DHT22;47278;49.732;7.690;2023-02-07T01:24:58;0.40;99.90
61412;DHT22;47278;49.732;7.690;2023-02-07T01:27:23;0.30;99.90
61412;DHT22;47278;49.732;7.690;2023-02-07T01:29:49;0.10;99.90
61412;DHT22;47278;49.732;7.690;2023-02-07T01:32:15;0.60;99.90
61412;DHT22;47278;49.732;7.690;2023-02-07T01:34:41;0.10;99.90
61412;DHT22;47278;49.732;7.690;2023-02-07T01:37:06;0.20;99.90
61412;DHT22;47278;49.732;7.690;2023-02-07T01:39:32;0.30;99.90
61412;DHT22;47278;49.732;7.690;2023-02-07T01:41:57;0.10;99.90
61412;DHT22;47278;49.732;7.690;2023-02-07T01:46:49;0.00;99.90
61412;DHT22;47278;49.732;7.690;2023-02-07T01:49:15;0.00;99.90
61412;DHT22;47278;49.732;7.690;2023-02-07T01:51:50;-0.10;99.90
61412;DHT22;47278;49.732;7.690;2023-02-07T01:54:16;-0.10;99.90
61412;DHT22;47278;49.732;7.690;2023-02-07T01:56:44;-0.10;99.90
61412;DHT22;47278;49.732;7.690;2023-02-07T01:59:10;-0.10;99.90
61412;DHT22;47278;49.732;7.690;2023-02-07T02:01:36;0.00;99.90
61412;DHT22;47278;49.732;7.690;2023-02-07T02:04:02;0.10;99.90
61412;DHT22;47278;49.732;7.690;2023-02-07T02:06:28;0.20;99.90
61412;DHT22;47278;49.732;7.690;2023-02-07T02:08:55;0.30;99.90
61412;DHT22;47278;49.732;7.690;2023-02-07T02:14:16;0.70;99.90
61412;DHT22;47278;49.732;7.690;2023-02-07T02:19:27;0.90;99.90
61412;DHT22;47278;49.732;7.690;2023-02-07T02:24:35;3.70;99.90
61412;DHT22;47278;49.732;7.690;2023-02-07T02:27:10;1.10;99.90
61412;DHT22;47278;49.732;7.690;2023-02-07T02:40:04;1.40;99.90
61412;DHT22;47278;49.732;7.690;2023-02-07T02:42:33;1.40;99.90
61412;DHT22;47278;49.732;7.690;2023-02-07T02:45:02;1.40;99.90
61412;DHT22;47278;49.732;7.690;2023-02-07T02:47:32;1.50;99.90
61412;DHT22;47278;49.732;7.690;2023-02-07T02:49:58;1.40;99.90
61412;DHT22;47278;49.732;7.690;2023-02-07T02:52:25;1.30;99.90
61412;DHT22;47278;49.732;7.690;2023-02-07T02:54:51;1.30;99.90
61412;DHT22;47278;49.732;7.690;2023-02-07T03:10:06;0.60;99.90
61412;DHT22;47278;49.732;7.690;2023-02-07T03:12:39;0.40;99.90
61412;DHT22;47278;49.732;7.690;2023-02-07T03:17:38;0.20;99.90
61412;DHT22;47278;49.732;7.690;2023-02-07T03:20:13;0.10;99.90
61412;DHT22;47278;49.732;7.690;2023-02-07T03:22:42;0.10;99.90
61412;DHT22;47278;49.732;7.690;2023-02-07T03:25:08;0.10;99.90
61412;DHT22;47278;49.732;7.690;2023-02-07T03:27:34;0.30;99.90
61412;DHT22;47278;49.732;7.690;2023-02-07T03:30:03;0.00;99.90
61412;DHT22;47278;49.732;7.690;2023-02-07T03:32:30;-0.20;99.90
61412;DHT22;47278;49.732;7.690;2023-02-07T03:37:43;-0.20;99.90
61412;DHT22;47278;49.732;7.690;2023-02-07T03:40:10;-0.30;99.90
61412;DHT22;47278;49.732;7.690;2023-02-07T03:42:41;-0.50;99.90
61412;DHT22;47278;49.732;7.690;2023-02-07T03:45:08;-0.60;99.90
61412;DHT22;47278;49.732;7.690;2023-02-07T03:47:36;-0.50;99.90
61412;DHT22;47278;49.732;7.690;2023-02-07T03:50:01;-0.60;99.90
61412;DHT22;47278;49.732;7.690;2023-02-07T03:52:27;-0.60;99.90
61412;DHT22;47278;49.732;7.690;2023-02-07T03:54:52;-0.70;99.90
61412;DHT22;47278;49.732;7.690;2023-02-07T03:57:18;-0.70;99.90
61412;DHT22;47278;49.732;7.690;2023-02-07T03:59:44;-0.60;99.90
61412;DHT22;47278;49.732;7.690;2023-02-07T04:02:09;-0.70;99.90
61412;DHT22;47278;49.732;7.690;2023-02-07T04:04:35;-0.80;99.90
61412;DHT22;47278;49.732;7.690;2023-02-07T04:07:01;-0.70;99.90
61412;DHT22;47278;49.732;7.690;2023-02-07T04:09:26;-0.70;99.90
61412;DHT22;47278;49.732;7.690;2023-02-07T04:11:52;-0.80;99.90
61412;DHT22;47278;49.732;7.690;2023-02-07T04:14:17;-0.70;99.90
61412;DHT22;47278;49.732;7.690;2023-02-07T04:16:47;-0.70;99.90
61412;DHT22;47278;49.732;7.690;2023-02-07T04:19:12;-0.70;99.90
61412;DHT22;47278;49.732;7.690;2023-02-07T04:21:38;-0.70;99.90
61412;DHT22;47278;49.732;7.690;2023-02-07T04:24:04;-0.70;99.90
61412;DHT22;47278;49.732;7.690;2023-02-07T04:26:29;-0.60;99.90
61412;DHT22;47278;49.732;7.690;2023-02-07T04:28:55;-0.50;99.90
61412;DHT22;47278;49.732;7.690;2023-02-07T04:31:20;-0.50;99.90
61412;DHT22;47278;49.732;7.690;2023-02-07T04:33:46;-0.70;99.90
61412;DHT22;47278;49.732;7.690;2023-02-07T04:36:12;-0.60;99.90
61412;DHT22;47278;49.732;7.690;2023-02-07T04:38:38;-0.50;99.90
61412;DHT22;47278;49.732;7.690;2023-02-07T04:41:04;-0.60;99.90
61412;DHT22;47278;49.732;7.690;2023-02-07T04:43:30;-0.60;99.90
61412;DHT22;47278;49.732;7.690;2023-02-07T04:45:56;-0.70;99.90
61412;DHT22;47278;49.732;7.690;2023-02-07T04:48:21;-0.90;99.90
61412;DHT22;47278;49.732;7.690;2023-02-07T04:50:47;-1.10;99.90
61412;DHT22;47278;49.732;7.690;2023-02-07T04:53:12;-1.10;99.90
61412;DHT22;47278;49.732;7.690;2023-02-07T04:55:38;-1.20;99.90
61412;DHT22;47278;49.732;7.690;2023-02-07T04:58:04;-1.30;99.90
61412;DHT22;47278;49.732;7.690;2023-02-07T05:00:30;-1.20;99.90
61412;DHT22;47278;49.732;7.690;2023-02-07T05:02:55;-1.20;99.90
61412;DHT22;47278;49.732;7.690;2023-02-07T05:05:21;-1.20;99.90
61412;DHT22;47278;49.732;7.690;2023-02-07T05:07:46;-1.10;99.90
61412;DHT22;47278;49.732;7.690;2023-02-07T05:10:12;-1.00;99.90
61412;DHT22;47278;49.732;7.690;2023-02-07T05:12:37;-1.00;99.90
61412;DHT22;47278;49.732;7.690;2023-02-07T05:15:03;-1.00;99.90
61412;DHT22;47278;49.732;7.690;2023-02-07T05:17:29;0.00;99.90
61412;DHT22;47278;49.732;7.690;2023-02-07T05:19:54;-0.90;99.90
61412;DHT22;47278;49.732;7.690;2023-02-07T05:22:20;-1.20;99.90
61412;DHT22;47278;49.732;7.690;2023-02-07T05:24:45;-1.20;99.90
61412;DHT22;47278;49.732;7.690;2023-02-07T05:27:11;-1.30;99.90
61412;DHT22;47278;49.732;7.690;2023-02-07T05:29:37;-1.40;99.90
61412;DHT22;47278;49.732;7.690;2023-02-07T05:32:02;-1.40;99.90
61412;DHT22;47278;49.732;7.690;2023-02-07T05:34:46;-1.50;99.90
61412;DHT22;47278;49.732;7.690;2023-02-07T05:37:12;-1.50;99.90
61412;DHT22;47278;49.732;7.690;2023-02-07T05:39:37;-1.50;99.90
61412;DHT22;47278;49.732;7.690;2023-02-07T05:42:03;-1.60;99.90
61412;DHT22;47278;49.732;7.690;2023-02-07T05:44:28;-1.60;99.90
61412;DHT22;47278;49.732;7.690;2023-02-07T05:46:54;-1.60;99.90
61412;DHT22;47278;49.732;7.690;2023-02-07T05:49:19;-1.70;99.90
61412;DHT22;47278;49.732;7.690;2023-02-07T05:51:45;-1.80;99.90
61412;DHT22;47278;49.732;7.690;2023-02-07T05:54:10;-1.70;99.90
61412;DHT22;47278;49.732;7.690;2023-02-07T05:56:36;-1.70;99.90
61412;DHT22;47278;49.732;7.690;2023-02-07T05:59:01;-1.70;99.90
61412;DHT22;47278;49.732;7.690;2023-02-07T06:01:27;-1.70;99.90
61412;DHT22;47278;49.732;7.690;2023-02-07T06:03:52;-1.80;99.90
61412;DHT22;47278;49.732;7.690;2023-02-07T06:06:18;-1.30;99.90
61412;DHT22;47278;49.732;7.690;2023-02-07T06:08:43;-1.70;99.90
61412;DHT22;47278;49.732;7.690;2023-02-07T06:11:09;-1.80;99.90
61412;DHT22;47278;49.732;7.690;2023-02-07T06:13:34;-1.80;99.90
61412;DHT22;47278;49.732;7.690;2023-02-07T06:16:00;-1.90;99.90
61412;DHT22;47278;49.732;7.690;2023-02-07T06:18:26;-1.90;99.90
61412;DHT22;47278;49.732;7.690;2023-02-07T06:20:51;-1.80;99.90
61412;DHT22;47278;49.732;7.690;2023-02-07T06:23:17;-3.20;99.90
61412;DHT22;47278;49.732;7.690;2023-02-07T06:25:45;-1.80;99.90
61412;DHT22;47278;49.732;7.690;2023-02-07T06:28:10;-1.80;99.90
61412;DHT22;47278;49.732;7.690;2023-02-07T06:30:36;-1.80;99.90
61412;DHT22;47278;49.732;7.690;2023-02-07T06:33:01;-1.80;99.90
61412;DHT22;47278;49.732;7.690;2023-02-07T06:35:27;-1.90;99.90
61412;DHT22;47278;49.732;7.690;2023-02-07T06:37:52;-1.90;99.90
61412;DHT22;47278;49.732;7.690;2023-02-07T06:40:18;-1.90;99.90
61412;DHT22;47278;49.732;7.690;2023-02-07T06:42:43;-1.80;99.90
61412;DHT22;47278;49.732;7.690;2023-02-07T06:45:09;-1.90;99.90
61412;DHT22;47278;49.732;7.690;2023-02-07T06:47:35;-2.00;99.90
61412;DHT22;47278;49.732;7.690;2023-02-07T06:50:00;-2.00;99.90
61412;DHT22;47278;49.732;7.690;2023-02-07T06:52:26;-2.10;99.90
61412;DHT22;47278;49.732;7.690;2023-02-07T06:54:51;-2.20;99.90
61412;DHT22;47278;49.732;7.690;2023-02-07T06:57:17;-2.10;99.90
61412;DHT22;47278;49.732;7.690;2023-02-07T06:59:42;-2.10;99.90
61412;DHT22;47278;49.732;7.690;2023-02-07T07:02:09;-2.10;99.90
61412;DHT22;47278;49.732;7.690;2023-02-07T07:04:35;-2.10;99.90
61412;DHT22;47278;49.732;7.690;2023-02-07T07:07:00;-2.20;99.90
61412;DHT22;47278;49.732;7.690;2023-02-07T07:09:26;-2.10;99.90
61412;DHT22;47278;49.732;7.690;2023-02-07T07:11:51;-2.20;99.90
61412;DHT22;47278;49.732;7.690;2023-02-07T07:14:17;-2.20;99.90
61412;DHT22;47278;49.732;7.690;2023-02-07T07:16:42;-2.20;99.90
61412;DHT22;47278;49.732;7.690;2023-02-07T07:19:08;-2.00;99.90
61412;DHT22;47278;49.732;7.690;2023-02-07T07:21:34;-2.00;99.90
61412;DHT22;47278;49.732;7.690;2023-02-07T07:23:59;-2.00;99.90
61412;DHT22;47278;49.732;7.690;2023-02-07T07:26:25;-2.00;99.90
61412;DHT22;47278;49.732;7.690;2023-02-07T07:28:50;-2.00;99.90
61412;DHT22;47278;49.732;7.690;2023-02-07T07:31:16;-2.00;99.90
61412;DHT22;47278;49.732;7.690;2023-02-07T07:33:42;-2.00;99.90
61412;DHT22;47278;49.732;7.690;2023-02-07T07:36:07;-2.00;99.90
61412;DHT22;47278;49.732;7.690;2023-02-07T07:38:33;-1.90;99.90
61412;DHT22;47278;49.732;7.690;2023-02-07T07:40:59;-2.00;99.90
61412;DHT22;47278;49.732;7.690;2023-02-07T07:43:25;-2.00;99.90
61412;DHT22;47278;49.732;7.690;2023-02-07T07:45:51;-2.10;99.90
61412;DHT22;47278;49.732;7.690;2023-02-07T07:48:17;-0.90;99.90
61412;DHT22;47278;49.732;7.690;2023-02-07T07:50:43;-2.00;99.90
61412;DHT22;47278;49.732;7.690;2023-02-07T07:53:08;-1.90;99.90
61412;DHT22;47278;49.732;7.690;2023-02-07T07:55:34;-2.00;99.90
61412;DHT22;47278;49.732;7.690;2023-02-07T07:57:59;-2.00;99.90
61412;DHT22;47278;49.732;7.690;2023-02-07T08:00:25;-2.00;99.90
61412;DHT22;47278;49.732;7.690;2023-02-07T08:02:50;-2.10;99.90
61412;DHT22;47278;49.732;7.690;2023-02-07T08:05:16;-2.00;99.90
61412;DHT22;47278;49.732;7.690;2023-02-07T08:07:42;-1.90;99.90
61412;DHT22;47278;49.732;7.690;2023-02-07T08:10:07;-1.80;99.90
61412;DHT22;47278;49.732;7.690;2023-02-07T08:12:33;-1.80;99.90
61412;DHT22;47278;49.732;7.690;2023-02-07T08:14:58;-1.10;99.90
61412;DHT22;47278;49.732;7.690;2023-02-07T08:17:24;-1.90;99.90
61412;DHT22;47278;49.732;7.690;2023-02-07T08:19:49;-1.80;99.90
61412;DHT22;47278;49.732;7.690;2023-02-07T08:22:15;-1.70;99.90
61412;DHT22;47278;49.732;7.690;2023-02-07T08:24:40;-1.60;99.90
61412;DHT22;47278;49.732;7.690;2023-02-07T08:27:06;-1.60;99.90
61412;DHT22;47278;49.732;7.690;2023-02-07T08:29:32;-1.40;99.90
61412;DHT22;47278;49.732;7.690;2023-02-07T08:31:57;-1.50;99.90
61412;DHT22;47278;49.732;7.690;2023-02-07T08:34:23;-1.50;99.90
61412;DHT22;47278;49.732;7.690;2023-02-07T08:36:51;-1.40;99.90
61412;DHT22;47278;49.732;7.690;2023-02-07T08:39:17;-1.00;99.90
61412;DHT22;47278;49.732;7.690;2023-02-07T08:41:42;-1.00;99.90
61412;DHT22;47278;49.732;7.690;2023-02-07T08:44:08;-0.50;99.90
61412;DHT22;47278;49.732;7.690;2023-02-07T08:46:33;-0.60;99.90
61412;DHT22;47278;49.732;7.690;2023-02-07T08:48:59;-0.70;99.90
61412;DHT22;47278;49.732;7.690;2023-02-07T08:51:25;-0.70;99.90
61412;DHT22;47278;49.732;7.690;2023-02-07T08:53:51;-0.60;99.90
61412;DHT22;47278;49.732;7.690;2023-02-07T08:56:17;-0.50;99.90
61412;DHT22;47278;49.732;7.690;2023-02-07T08:58:42;-0.40;99.90
61412;DHT22;47278;49.732;7.690;2023-02-07T09:01:08;-0.10;99.90
61412;DHT22;47278;49.732;7.690;2023-02-07T09:03:38;-0.10;99.90
61412;DHT22;47278;49.732;7.690;2023-02-07T09:06:04;0.00;99.90
61412;DHT22;47278;49.732;7.690;2023-02-07T09:08:31;-0.20;99.90
61412;DHT22;47278;49.732;7.690;2023-02-07T09:10:57;0.20;99.90
61412;DHT22;47278;49.732;7.690;2023-02-07T09:13:22;0.60;99.90
61412;DHT22;47278;49.732;7.690;2023-02-07T09:15:55;0.60;99.90
61412;DHT22;47278;49.732;7.690;2023-02-07T09:18:21;0.70;99.90
61412;DHT22;47278;49.732;7.690;2023-02-07T09:20:46;0.90;99.90
61412;DHT22;47278;49.732;7.690;2023-02-07T09:23:12;1.10;99.90
61412;DHT22;47278;49.732;7.690;2023-02-07T09:25:45;1.30;99.90
61412;DHT22;47278;49.732;7.690;2023-02-07T09:28:11;1.60;99.90
61412;DHT22;47278;49.732;7.690;2023-02-07T09:30:39;1.90;99.90
61412;DHT22;47278;49.732;7.690;2023-02-07T09:33:04;1.80;99.90
61412;DHT22;47278;49.732;7.690;2023-02-07T09:35:30;1.70;99.90
61412;DHT22;47278;49.732;7.690;2023-02-07T09:37:55;1.90;99.90
61412;DHT22;47278;49.732;7.690;2023-02-07T09:40:21;1.90;99.90
61412;DHT22;47278;49.732;7.690;2023-02-07T09:42:57;1.70;99.90
61412;DHT22;47278;49.732;7.690;2023-02-07T09:45:26;1.80;99.90
61412;DHT22;47278;49.732;7.690;2023-02-07T09:48:00;2.20;99.90
61412;DHT22;47278;49.732;7.690;2023-02-07T09:50:28;2.40;99.90
61412;DHT22;47278;49.732;7.690;2023-02-07T09:52:56;2.10;99.90
61412;DHT22;47278;49.732;7.690;2023-02-07T09:55:35;2.20;99.90
61412;DHT22;47278;49.732;7.690;2023-02-07T09:58:49;2.50;99.90
61412;DHT22;47278;49.732;7.690;2023-02-07T10:00:57;2.40;99.90
61412;DHT22;47278;49.732;7.690;2023-02-07T10:03:23;2.30;99.90
61412;DHT22;47278;49.732;7.690;2023-02-07T10:05:57;2.10;99.90
61412;DHT22;47278;49.732;7.690;2023-02-07T10:08:23;2.60;99.90
61412;DHT22;47278;49.732;7.690;2023-02-07T10:21:08;2.70;99.90
61412;DHT22;47278;49.732;7.690;2023-02-07T10:23:39;2.60;99.90
61412;DHT22;47278;49.732;7.690;2023-02-07T10:29:09;2.80;99.90
61412;DHT22;47278;49.732;7.690;2023-02-07T10:31:40;3.10;99.90
61412;DHT22;47278;49.732;7.690;2023-02-07T10:34:17;3.10;99.90
61412;DHT22;47278;49.732;7.690;2023-02-07T10:36:45;2.90;99.90
61412;DHT22;47278;49.732;7.690;2023-02-07T10:39:17;3.10;99.90
61412;DHT22;47278;49.732;7.690;2023-02-07T10:41:44;3.10;99.90
61412;DHT22;47278;49.732;7.690;2023-02-07T10:44:15;2.70;99.90
61412;DHT22;47278;49.732;7.690;2023-02-07T10:46:42;3.10;99.90
61412;DHT22;47278;49.732;7.690;2023-02-07T10:49:16;3.30;99.90
61412;DHT22;47278;49.732;7.690;2023-02-07T10:51:43;3.60;99.90
61412;DHT22;47278;49.732;7.690;2023-02-07T10:54:17;3.70;99.90
61412;DHT22;47278;49.732;7.690;2023-02-07T10:56:45;3.80;99.90
61412;DHT22;47278;49.732;7.690;2023-02-07T10:59:28;4.10;99.90
61412;DHT22;47278;49.732;7.690;2023-02-07T11:01:54;4.00;99.90
61412;DHT22;47278;49.732;7.690;2023-02-07T11:04:29;4.30;99.90
61412;DHT22;47278;49.732;7.690;2023-02-07T11:06:59;3.80;99.90
61412;DHT22;47278;49.732;7.690;2023-02-07T11:09:25;3.90;99.90
61412;DHT22;47278;49.732;7.690;2023-02-07T11:11:51;4.30;99.90
61412;DHT22;47278;49.732;7.690;2023-02-07T11:14:21;4.60;99.90
61412;DHT22;47278;49.732;7.690;2023-02-07T11:16:54;4.50;99.90
61412;DHT22;47278;49.732;7.690;2023-02-07T11:19:21;4.30;99.90
61412;DHT22;47278;49.732;7.690;2023-02-07T11:21:49;4.10;99.90
61412;DHT22;47278;49.732;7.690;2023-02-07T11:27:26;4.40;99.90
61412;DHT22;47278;49.732;7.690;2023-02-07T11:29:27;4.40;99.90
61412;DHT22;47278;49.732;7.690;2023-02-07T11:31:54;4.20;99.90
61412;DHT22;47278;49.732;7.690;2023-02-07T11:37:08;5.00;99.90
61412;DHT22;47278;49.732;7.690;2023-02-07T11:39:34;4.70;99.90
61412;DHT22;47278;49.732;7.690;2023-02-07T11:42:00;4.70;99.90
61412;DHT22;47278;49.732;7.690;2023-02-07T11:44:28;4.70;99.90
61412;DHT22;47278;49.732;7.690;2023-02-07T11:46:55;4.60;99.90
61412;DHT22;47278;49.732;7.690;2023-02-07T11:49:23;4.70;99.90
61412;DHT22;47278;49.732;7.690;2023-02-07T11:51:53;5.00;99.90
61412;DHT22;47278;49.732;7.690;2023-02-07T11:54:20;4.90;99.90
61412;DHT22;47278;49.732;7.690;2023-02-07T11:56:53;5.30;99.90
61412;DHT22;47278;49.732;7.690;2023-02-07T11:59:24;5.00;99.90
61412;DHT22;47278;49.732;7.690;2023-02-07T12:01:53;5.20;99.90
61412;DHT22;47278;49.732;7.690;2023-02-07T12:04:20;5.00;99.90
61412;DHT22;47278;49.732;7.690;2023-02-07T12:06:51;5.00;99.90
61412;DHT22;47278;49.732;7.690;2023-02-07T12:09:23;5.20;99.90
61412;DHT22;47278;49.732;7.690;2023-02-07T12:11:52;5.10;99.90
61412;DHT22;47278;49.732;7.690;2023-02-07T12:14:42;5.20;99.90
61412;DHT22;47278;49.732;7.690;2023-02-07T12:17:07;5.40;99.90
61412;DHT22;47278;49.732;7.690;2023-02-07T12:19:48;5.20;99.90
61412;DHT22;47278;49.732;7.690;2023-02-07T12:22:20;5.10;99.90
61412;DHT22;47278;49.732;7.690;2023-02-07T12:27:19;5.80;99.90
61412;DHT22;47278;49.732;7.690;2023-02-07T12:29:57;5.30;99.90
61412;DHT22;47278;49.732;7.690;2023-02-07T12:35:30;5.60;99.90
61412;DHT22;47278;49.732;7.690;2023-02-07T12:40:37;5.70;99.90
61412;DHT22;47278;49.732;7.690;2023-02-07T12:43:11;5.70;99.90
61412;DHT22;47278;49.732;7.690;2023-02-07T12:45:42;5.90;99.90
61412;DHT22;47278;49.732;7.690;2023-02-07T13:00:51;5.80;99.90
61412;DHT22;47278;49.732;7.690;2023-02-07T13:06:16;5.90;99.90
61412;DHT22;47278;49.732;7.690;2023-02-07T13:08:59;5.70;99.90
61412;DHT22;47278;49.732;7.690;2023-02-07T13:16:34;6.40;99.90
61412;DHT22;47278;49.732;7.690;2023-02-07T13:21:39;5.80;99.90
61412;DHT22;47278;49.732;7.690;2023-02-07T13:24:06;6.20;99.90
61412;DHT22;47278;49.732;7.690;2023-02-07T13:26:35;6.50;99.90
61412;DHT22;47278;49.732;7.690;2023-02-07T13:29:03;6.80;99.90
61412;DHT22;47278;49.732;7.690;2023-02-07T13:33:56;6.20;99.90
61412;DHT22;47278;49.732;7.690;2023-02-07T13:44:38;6.40;99.90
61412;DHT22;47278;49.732;7.690;2023-02-07T13:49:43;6.40;99.90
61412;DHT22;47278;49.732;7.690;2023-02-07T13:54:52;6.40;99.90
61412;DHT22;47278;49.732;7.690;2023-02-07T13:57:36;7.20;99.90
61412;DHT22;47278;49.732;7.690;2023-02-07T14:00:21;6.60;99.90
61412;DHT22;47278;49.732;7.690;2023-02-07T14:02:53;6.20;99.90
61412;DHT22;47278;49.732;7.690;2023-02-07T14:08:33;6.20;99.90
61412;DHT22;47278;49.732;7.690;2023-02-07T14:11:00;6.10;99.90
61412;DHT22;47278;49.732;7.690;2023-02-07T14:15:56;6.20;99.90
61412;DHT22;47278;49.732;7.690;2023-02-07T14:18:41;6.40;99.90
61412;DHT22;47278;49.732;7.690;2023-02-07T14:34:20;6.90;99.90
61412;DHT22;47278;49.732;7.690;2023-02-07T14:36:46;7.00;99.90
61412;DHT22;47278;49.732;7.690;2023-02-07T14:41:38;10.80;99.90
61412;DHT22;47278;49.732;7.690;2023-02-07T14:44:06;12.40;99.90
61412;DHT22;47278;49.732;7.690;2023-02-07T14:46:37;12.80;99.90
61412;DHT22;47278;49.732;7.690;2023-02-07T14:49:29;13.00;99.90
61412;DHT22;47278;49.732;7.690;2023-02-07T14:51:57;13.80;99.90
61412;DHT22;47278;49.732;7.690;2023-02-07T14:54:42;13.80;99.90
61412;DHT22;47278;49.732;7.690;2023-02-07T15:00:03;14.30;99.90
61412;DHT22;47278;49.732;7.690;2023-02-07T15:02:33;15.00;99.90
61412;DHT22;47278;49.732;7.690;2023-02-07T15:05:19;14.60;99.90
61412;DHT22;47278;49.732;7.690;2023-02-07T15:07:46;14.30;99.90
61412;DHT22;47278;49.732;7.690;2023-02-07T15:10:13;14.20;99.90
61412;DHT22;47278;49.732;7.690;2023-02-07T15:12:38;14.10;99.90
61412;DHT22;47278;49.732;7.690;2023-02-07T15:15:05;13.10;99.90
61412;DHT22;47278;49.732;7.690;2023-02-07T15:17:31;13.10;99.90
61412;DHT22;47278;49.732;7.690;2023-02-07T15:19:57;13.40;99.90
61412;DHT22;47278;49.732;7.690;2023-02-07T15:22:27;13.50;99.90
61412;DHT22;47278;49.732;7.690;2023-02-07T15:24:56;10.90;99.90
61412;DHT22;47278;49.732;7.690;2023-02-07T15:27:26;8.00;99.90
61412;DHT22;47278;49.732;7.690;2023-02-07T15:29:59;6.20;99.90
61412;DHT22;47278;49.732;7.690;2023-02-07T15:32:26;5.60;99.90
61412;DHT22;47278;49.732;7.690;2023-02-07T15:34:54;5.20;99.90
61412;DHT22;47278;49.732;7.690;2023-02-07T15:37:20;4.90;99.90
61412;DHT22;47278;49.732;7.690;2023-02-07T15:39:47;4.60;99.90
61412;DHT22;47278;49.732;7.690;2023-02-07T15:42:17;4.60;99.90
61412;DHT22;47278;49.732;7.690;2023-02-07T15:44:46;4.50;99.90
61412;DHT22;47278;49.732;7.690;2023-02-07T15:47:30;4.30;99.90
61412;DHT22;47278;49.732;7.690;2023-02-07T15:49:59;4.10;99.90
61412;DHT22;47278;49.732;7.690;2023-02-07T15:54:56;3.80;99.90
61412;DHT22;47278;49.732;7.690;2023-02-07T15:57:33;3.80;99.90
61412;DHT22;47278;49.732;7.690;2023-02-07T16:00:04;5.40;99.90
61412;DHT22;47278;49.732;7.690;2023-02-07T16:02:32;3.60;99.90
61412;DHT22;47278;49.732;7.690;2023-02-07T16:05:11;3.50;99.90
61412;DHT22;47278;49.732;7.690;2023-02-07T16:07:37;3.40;99.90
61412;DHT22;47278;49.732;7.690;2023-02-07T16:10:30;3.20;99.90
61412;DHT22;47278;49.732;7.690;2023-02-07T16:13:02;3.10;99.90
61412;DHT22;47278;49.732;7.690;2023-02-07T16:15:35;3.00;99.90
61412;DHT22;47278;49.732;7.690;2023-02-07T16:18:02;2.70;99.90
61412;DHT22;47278;49.732;7.690;2023-02-07T16:20:28;2.50;99.90
61412;DHT22;47278;49.732;7.690;2023-02-07T16:22:55;2.40;99.90
61412;DHT22;47278;49.732;7.690;2023-02-07T16:25:21;2.30;99.90
61412;DHT22;47278;49.732;7.690;2023-02-07T16:27:48;2.30;99.90
61412;DHT22;47278;49.732;7.690;2023-02-07T16:30:16;2.00;99.90
61412;DHT22;47278;49.732;7.690;2023-02-07T16:32:42;1.80;99.90
61412;DHT22;47278;49.732;7.690;2023-02-07T16:35:29;1.80;99.90
61412;DHT22;47278;49.732;7.690;2023-02-07T16:37:54;1.70;99.90
61412;DHT22;47278;49.732;7.690;2023-02-07T16:40:20;1.50;99.90
61412;DHT22;47278;49.732;7.690;2023-02-07T16:42:46;1.40;99.90
61412;DHT22;47278;49.732;7.690;2023-02-07T16:45:16;1.40;99.90
61412;DHT22;47278;49.732;7.690;2023-02-07T16:47:42;1.30;99.90
61412;DHT22;47278;49.732;7.690;2023-02-07T16:50:15;1.20;99.90
61412;DHT22;47278;49.732;7.690;2023-02-07T16:52:41;0.90;99.90
61412;DHT22;47278;49.732;7.690;2023-02-07T16:55:06;0.80;99.90
61412;DHT22;47278;49.732;7.690;2023-02-07T16:57:32;0.70;99.90
61412;DHT22;47278;49.732;7.690;2023-02-07T16:59:58;0.70;99.90
61412;DHT22;47278;49.732;7.690;2023-02-07T17:02:24;0.70;99.90
61412;DHT22;47278;49.732;7.690;2023-02-07T17:04:50;0.60;99.90
61412;DHT22;47278;49.732;7.690;2023-02-07T17:07:15;0.50;99.90
61412;DHT22;47278;49.732;7.690;2023-02-07T17:09:42;0.40;99.90
61412;DHT22;47278;49.732;7.690;2023-02-07T17:12:10;0.40;99.90
61412;DHT22;47278;49.732;7.690;2023-02-07T17:14:39;0.30;99.90
61412;DHT22;47278;49.732;7.690;2023-02-07T17:17:04;0.20;99.90
61412;DHT22;47278;49.732;7.690;2023-02-07T17:19:30;0.10;99.90
61412;DHT22;47278;49.732;7.690;2023-02-07T17:21:56;0.00;99.90
61412;DHT22;47278;49.732;7.690;2023-02-07T17:24:21;-0.10;99.90
61412;DHT22;47278;49.732;7.690;2023-02-07T17:26:48;0.10;99.90
61412;DHT22;47278;49.732;7.690;2023-02-07T17:29:15;-0.20;99.90
61412;DHT22;47278;49.732;7.690;2023-02-07T17:31:41;-0.30;99.90
61412;DHT22;47278;49.732;7.690;2023-02-07T17:34:07;-0.30;99.90
61412;DHT22;47278;49.732;7.690;2023-02-07T17:36:33;-0.30;99.90
61412;DHT22;47278;49.732;7.690;2023-02-07T17:38:59;-0.30;99.90
61412;DHT22;47278;49.732;7.690;2023-02-07T17:41:25;-0.40;99.90
61412;DHT22;47278;49.732;7.690;2023-02-07T17:43:51;-0.40;99.90
61412;DHT22;47278;49.732;7.690;2023-02-07T17:46:18;-0.10;99.90
61412;DHT22;47278;49.732;7.690;2023-02-07T17:48:45;-0.40;99.90
61412;DHT22;47278;49.732;7.690;2023-02-07T17:51:15;-0.50;99.90
61412;DHT22;47278;49.732;7.690;2023-02-07T17:53:41;-0.50;99.90
61412;DHT22;47278;49.732;7.690;2023-02-07T17:56:08;-0.60;99.90